createdAt,value
2022-09-27T15:07:02.071Z,7.40
2022-09-27T15:09:32.353Z,7.10
2022-09-27T15:12:00.743Z,6.90
2022-09-27T15:14:29.315Z,7.20
2022-09-27T15:16:57.740Z,7.80
2022-09-27T15:19:30.293Z,7.70
2022-09-27T15:29:28.505Z,8.50
2022-09-27T16:02:22.566Z,8.40
2022-09-27T16:04:49.183Z,8.10
2022-09-27T16:07:15.873Z,8.50
2022-09-27T16:09:43.481Z,7.90
2022-09-27T16:12:10.078Z,7.60
2022-09-27T16:14:36.661Z,7.50
2022-09-27T16:17:03.260Z,7.80
2022-09-27T16:19:29.886Z,8.00
2022-09-27T16:21:56.489Z,7.90
2022-09-27T16:24:25.084Z,7.90
2022-09-27T16:26:51.688Z,7.70
2022-09-27T16:29:18.412Z,7.40
2022-09-27T16:31:45.748Z,7.40
2022-09-27T16:34:12.568Z,7.30
2022-09-27T16:36:39.343Z,7.20
2022-09-27T16:39:12.689Z,7.10
2022-09-27T16:41:43.469Z,7.30
2022-09-27T16:44:11.921Z,7.20
2022-09-27T16:46:42.696Z,7.00
2022-09-27T16:49:31.906Z,7.00
2022-09-27T16:52:01.877Z,7.00
2022-09-27T16:54:29.331Z,6.90
2022-09-27T16:56:56.790Z,6.90
2022-09-27T16:59:24.758Z,6.80
2022-09-27T17:01:51.889Z,6.70
2022-09-27T17:04:18.574Z,6.90
2022-09-27T17:06:45.229Z,6.80
2022-09-27T17:09:12.006Z,6.80
2022-09-27T17:11:38.670Z,6.90
2022-09-27T17:14:05.285Z,6.80
2022-09-27T17:16:31.919Z,6.80
2022-09-27T17:18:58.650Z,6.70
2022-09-27T17:21:25.257Z,6.70
2022-09-27T17:23:51.942Z,6.80
2022-09-27T17:26:21.700Z,6.90
2022-09-27T17:28:48.641Z,6.80
2022-09-27T17:31:16.083Z,6.80
2022-09-27T17:33:47.447Z,6.80
2022-09-27T17:36:17.370Z,6.80
2022-09-27T17:38:44.693Z,6.60
2022-09-27T17:41:14.867Z,6.60
2022-09-27T17:43:48.785Z,6.50
2022-09-27T17:46:16.385Z,6.70
2022-09-27T17:49:01.502Z,6.70
2022-09-27T17:51:29.205Z,6.60
2022-09-27T17:53:55.782Z,7.10
2022-09-27T17:56:23.194Z,6.90
2022-09-27T17:58:54.146Z,6.80
2022-09-27T18:01:22.751Z,6.70
2022-09-27T18:03:52.643Z,6.60
2022-09-27T18:06:19.255Z,6.50
2022-09-27T18:08:45.857Z,6.50
2022-09-27T18:11:13.915Z,6.50
2022-09-27T18:13:41.116Z,6.50
2022-09-27T18:16:09.134Z,6.50
2022-09-27T18:18:38.416Z,6.60
2022-09-27T18:21:14.051Z,6.60
2022-09-27T18:23:41.995Z,6.70
2022-09-27T18:26:09.292Z,6.70
2022-09-27T18:28:37.529Z,6.70
2022-09-27T18:31:12.108Z,6.60
2022-09-27T18:33:39.045Z,6.60
2022-09-27T18:36:06.628Z,6.80
2022-09-27T18:38:33.578Z,6.60
2022-09-27T18:41:10.932Z,6.40
2022-09-27T18:43:38.917Z,6.50
2022-09-27T18:46:30.870Z,6.50
2022-09-27T18:48:54.018Z,6.40
2022-09-27T18:51:26.663Z,6.40
2022-09-27T18:53:57.591Z,6.70
2022-09-27T18:56:24.270Z,6.60
2022-09-27T18:58:54.145Z,6.50
2022-09-27T19:01:21.228Z,6.50
2022-09-27T19:03:48.130Z,6.50
2022-09-27T19:06:19.876Z,6.50
2022-09-27T19:08:46.587Z,6.50
2022-09-27T19:11:17.266Z,6.70
2022-09-27T19:13:51.140Z,6.70
2022-09-27T19:16:18.290Z,6.50
2022-09-27T19:18:44.922Z,6.50
2022-09-27T19:21:16.140Z,6.70
2022-09-27T19:23:43.346Z,6.70
2022-09-27T19:26:13.214Z,6.70
2022-09-27T19:28:40.980Z,6.60
2022-09-27T19:31:09.095Z,6.50
2022-09-27T19:33:36.005Z,6.50
2022-09-27T19:36:07.814Z,7.10
2022-09-27T19:38:35.187Z,7.00
2022-09-27T19:41:02.832Z,7.00
2022-09-27T19:43:30.942Z,6.70
2022-09-27T19:46:04.986Z,6.80
2022-09-27T19:48:31.665Z,6.70
2022-09-27T19:50:58.922Z,6.90
2022-09-27T19:53:29.844Z,6.60
2022-09-27T19:55:59.747Z,6.70
2022-09-27T19:58:27.056Z,6.50
2022-09-27T20:01:09.911Z,6.60
2022-09-27T20:03:37.570Z,6.60
2022-09-27T20:06:05.678Z,6.70
2022-09-27T20:08:32.298Z,6.60
2022-09-27T20:11:06.434Z,6.60
2022-09-27T20:13:33.748Z,6.90
2022-09-27T20:16:04.809Z,6.80
2022-09-27T20:18:31.498Z,6.70
2022-09-27T20:21:01.967Z,6.60
2022-09-27T20:23:29.721Z,7.10
2022-09-27T20:26:03.530Z,6.90
2022-09-27T20:28:30.133Z,6.90
2022-09-27T20:31:01.518Z,6.80
2022-09-27T20:33:46.783Z,6.80
2022-09-27T20:36:14.980Z,6.80
2022-09-27T20:38:45.670Z,6.60
2022-09-27T20:41:14.354Z,6.90
2022-09-27T20:43:40.941Z,6.80
2022-09-27T20:46:08.798Z,7.20
2022-09-27T20:48:35.727Z,6.80
2022-09-27T20:51:04.886Z,6.70
2022-09-27T20:53:32.297Z,6.70
2022-09-27T20:55:59.539Z,6.70
2022-09-27T20:58:26.242Z,6.70
2022-09-27T21:00:52.978Z,6.60
2022-09-27T21:03:21.904Z,6.60
2022-09-27T21:05:58.004Z,6.60
2022-09-27T21:08:25.188Z,6.80
2022-09-27T21:10:53.773Z,6.70
2022-09-27T21:13:20.835Z,7.00
2022-09-27T21:15:47.649Z,7.30
2022-09-27T21:18:14.281Z,7.00
2022-09-27T21:21:10.884Z,6.80
2022-09-27T21:23:54.415Z,6.80
2022-09-27T21:44:30.718Z,6.90
2022-09-27T21:47:12.605Z,6.70
2022-09-27T21:49:39.191Z,6.90
2022-09-27T21:52:06.066Z,7.00
2022-09-27T21:54:32.736Z,7.00
2022-09-27T21:56:59.324Z,6.70
2022-09-27T21:59:25.904Z,6.50
2022-09-27T22:01:52.574Z,6.40
2022-09-27T22:04:19.200Z,6.50
2022-09-27T22:06:45.859Z,6.40
2022-09-27T22:09:15.198Z,6.30
2022-09-27T22:11:47.157Z,6.40
2022-09-27T22:14:15.277Z,6.40
2022-09-27T22:16:41.981Z,6.60
2022-09-27T22:19:09.680Z,6.20
2022-09-27T22:21:37.211Z,5.70
2022-09-27T22:24:07.926Z,5.40
2022-09-27T22:26:36.902Z,5.40
2022-09-27T22:29:03.768Z,5.10
2022-09-27T22:31:30.463Z,5.20
2022-09-27T22:34:00.713Z,5.40
2022-09-27T22:36:27.952Z,5.20
2022-09-27T22:38:54.813Z,5.20
2022-09-27T22:41:21.728Z,5.20
2022-09-27T22:43:48.331Z,5.60
2022-09-27T22:46:15.017Z,5.20
2022-09-27T22:48:42.330Z,5.20
2022-09-27T22:51:08.954Z,5.20
2022-09-27T22:53:35.621Z,5.90
2022-09-27T22:56:07.117Z,5.60
2022-09-27T22:58:34.375Z,5.40
2022-09-27T23:01:20.099Z,5.40
2022-09-27T23:03:47.428Z,5.40
2022-09-27T23:06:14.892Z,5.30
2022-09-27T23:08:42.481Z,5.50
2022-09-27T23:11:11.330Z,5.40
2022-09-27T23:13:39.601Z,5.40
2022-09-27T23:16:07.906Z,5.30
2022-09-27T23:18:34.862Z,5.80
2022-09-27T23:21:03.224Z,5.50
2022-09-27T23:23:34.094Z,5.40
2022-09-27T23:26:02.045Z,5.50
2022-09-27T23:28:29.200Z,5.50
2022-09-27T23:30:55.923Z,5.40
2022-09-27T23:33:22.545Z,5.70
2022-09-27T23:35:50.229Z,5.80
2022-09-27T23:38:17.028Z,5.40
2022-09-27T23:40:44.637Z,5.70
2022-09-27T23:43:11.442Z,5.80
2022-09-27T23:45:38.370Z,5.50
2022-09-27T23:48:05.168Z,5.40
2022-09-27T23:50:34.325Z,5.60
2022-09-27T23:53:01.104Z,5.80
2022-09-27T23:55:27.741Z,5.50
2022-09-27T23:57:54.345Z,5.50
